sensor_id;sensor_type;location;lat;lon;timestamp;P1;durP1;ratioP1;P2;durP2;ratioP2
33022;SDS011;19390;51.460;5.710;2024-01-15T00:00:39;44.60;;;17.52;;
33022;SDS011;19390;51.460;5.710;2024-01-15T00:03:05;44.67;;;17.50;;
33022;SDS011;19390;51.460;5.710;2024-01-15T00:05:30;50.60;;;20.52;;
33022;SDS011;19390;51.460;5.710;2024-01-15T00:07:56;48.83;;;16.80;;
33022;SDS011;19390;51.460;5.710;2024-01-15T00:10:22;47.72;;;17.63;;
33022;SDS011;19390;51.460;5.710;2024-01-15T00:12:48;50.25;;;19.60;;
33022;SDS011;19390;51.460;5.710;2024-01-15T00:15:13;52.17;;;18.73;;
33022;SDS011;19390;51.460;5.710;2024-01-15T00:17:39;58.72;;;19.70;;
33022;SDS011;19390;51.460;5.710;2024-01-15T00:20:05;53.65;;;19.42;;
33022;SDS011;19390;51.460;5.710;2024-01-15T00:22:31;47.72;;;18.58;;
33022;SDS011;19390;51.460;5.710;2024-01-15T00:24:57;54.15;;;18.48;;
33022;SDS011;19390;51.460;5.710;2024-01-15T00:27:23;48.30;;;18.40;;
33022;SDS011;19390;51.460;5.710;2024-01-15T00:29:49;50.40;;;18.23;;
33022;SDS011;19390;51.460;5.710;2024-01-15T00:32:16;50.67;;;18.13;;
33022;SDS011;19390;51.460;5.710;2024-01-15T00:34:42;41.83;;;17.75;;
33022;SDS011;19390;51.460;5.710;2024-01-15T00:37:07;52.63;;;17.80;;
33022;SDS011;19390;51.460;5.710;2024-01-15T00:39:33;46.25;;;17.13;;
33022;SDS011;19390;51.460;5.710;2024-01-15T00:41:59;51.60;;;19.05;;
33022;SDS011;19390;51.460;5.710;2024-01-15T00:44:24;55.33;;;17.63;;
33022;SDS011;19390;51.460;5.710;2024-01-15T00:46:50;56.47;;;18.10;;
33022;SDS011;19390;51.460;5.710;2024-01-15T00:49:15;52.20;;;18.25;;
33022;SDS011;19390;51.460;5.710;2024-01-15T00:51:41;49.53;;;17.27;;
33022;SDS011;19390;51.460;5.710;2024-01-15T00:54:07;51.80;;;16.88;;
33022;SDS011;19390;51.460;5.710;2024-01-15T00:56:32;49.03;;;17.08;;
33022;SDS011;19390;51.460;5.710;2024-01-15T00:58:58;41.63;;;16.10;;
33022;SDS011;19390;51.460;5.710;2024-01-15T01:01:24;41.47;;;13.32;;
33022;SDS011;19390;51.460;5.710;2024-01-15T01:03:50;39.70;;;14.55;;
33022;SDS011;19390;51.460;5.710;2024-01-15T01:06:15;33.35;;;14.10;;
33022;SDS011;19390;51.460;5.710;2024-01-15T01:08:41;40.08;;;14.15;;
33022;SDS011;19390;51.460;5.710;2024-01-15T01:11:07;31.98;;;12.40;;
33022;SDS011;19390;51.460;5.710;2024-01-15T01:13:32;30.83;;;11.93;;
33022;SDS011;19390;51.460;5.710;2024-01-15T01:15:58;28.65;;;11.43;;
33022;SDS011;19390;51.460;5.710;2024-01-15T01:18:24;31.25;;;10.50;;
33022;SDS011;19390;51.460;5.710;2024-01-15T01:20:49;30.70;;;11.20;;
33022;SDS011;19390;51.460;5.710;2024-01-15T01:23:16;20.13;;;8.98;;
33022;SDS011;19390;51.460;5.710;2024-01-15T01:25:41;18.98;;;7.95;;
33022;SDS011;19390;51.460;5.710;2024-01-15T01:28:07;17.25;;;6.05;;
33022;SDS011;19390;51.460;5.710;2024-01-15T01:30:32;21.80;;;7.07;;
33022;SDS011;19390;51.460;5.710;2024-01-15T01:32:58;16.58;;;5.97;;
33022;SDS011;19390;51.460;5.710;2024-01-15T01:35:23;13.63;;;5.95;;
33022;SDS011;19390;51.460;5.710;2024-01-15T01:37:49;12.75;;;4.32;;
33022;SDS011;19390;51.460;5.710;2024-01-15T01:40:15;8.88;;;4.03;;
33022;SDS011;19390;51.460;5.710;2024-01-15T01:42:41;10.77;;;4.05;;
33022;SDS011;19390;51.460;5.710;2024-01-15T01:45:06;10.02;;;3.60;;
33022;SDS011;19390;51.460;5.710;2024-01-15T01:47:32;10.88;;;3.88;;
33022;SDS011;19390;51.460;5.710;2024-01-15T01:49:58;8.63;;;3.53;;
33022;SDS011;19390;51.460;5.710;2024-01-15T01:52:24;12.75;;;3.72;;
33022;SDS011;19390;51.460;5.710;2024-01-15T01:54:49;11.68;;;3.83;;
33022;SDS011;19390;51.460;5.710;2024-01-15T01:57:16;12.02;;;4.03;;
33022;SDS011;19390;51.460;5.710;2024-01-15T01:59:43;12.75;;;4.00;;
33022;SDS011;19390;51.460;5.710;2024-01-15T02:02:10;12.98;;;4.65;;
33022;SDS011;19390;51.460;5.710;2024-01-15T02:04:36;9.50;;;4.53;;
33022;SDS011;19390;51.460;5.710;2024-01-15T02:07:03;10.38;;;4.95;;
33022;SDS011;19390;51.460;5.710;2024-01-15T02:09:29;9.30;;;3.92;;
33022;SDS011;19390;51.460;5.710;2024-01-15T02:11:55;9.93;;;4.25;;
33022;SDS011;19390;51.460;5.710;2024-01-15T02:14:20;17.73;;;4.32;;
33022;SDS011;19390;51.460;5.710;2024-01-15T02:16:46;12.50;;;4.93;;
33022;SDS011;19390;51.460;5.710;2024-01-15T02:19:16;14.23;;;5.15;;
33022;SDS011;19390;51.460;5.710;2024-01-15T02:21:42;15.07;;;6.25;;
33022;SDS011;19390;51.460;5.710;2024-01-15T02:24:07;16.65;;;6.35;;
33022;SDS011;19390;51.460;5.710;2024-01-15T02:26:33;16.88;;;7.03;;
33022;SDS011;19390;51.460;5.710;2024-01-15T02:29:01;19.40;;;5.70;;
33022;SDS011;19390;51.460;5.710;2024-01-15T02:31:27;15.20;;;6.72;;
33022;SDS011;19390;51.460;5.710;2024-01-15T02:33:52;13.30;;;6.45;;
33022;SDS011;19390;51.460;5.710;2024-01-15T02:36:18;13.65;;;5.63;;
33022;SDS011;19390;51.460;5.710;2024-01-15T02:38:43;16.85;;;5.68;;
33022;SDS011;19390;51.460;5.710;2024-01-15T02:41:09;18.20;;;6.63;;
33022;SDS011;19390;51.460;5.710;2024-01-15T02:43:34;25.52;;;6.75;;
33022;SDS011;19390;51.460;5.710;2024-01-15T02:46:00;15.25;;;6.70;;
33022;SDS011;19390;51.460;5.710;2024-01-15T02:48:25;21.75;;;7.30;;
33022;SDS011;19390;51.460;5.710;2024-01-15T02:50:51;20.48;;;6.32;;
33022;SDS011;19390;51.460;5.710;2024-01-15T02:53:17;18.85;;;7.25;;
33022;SDS011;19390;51.460;5.710;2024-01-15T02:55:42;16.75;;;7.55;;
33022;SDS011;19390;51.460;5.710;2024-01-15T02:58:08;16.05;;;5.95;;
33022;SDS011;19390;51.460;5.710;2024-01-15T03:00:33;15.07;;;5.97;;
33022;SDS011;19390;51.460;5.710;2024-01-15T03:02:59;16.60;;;5.93;;
33022;SDS011;19390;51.460;5.710;2024-01-15T03:05:24;15.43;;;5.55;;
33022;SDS011;19390;51.460;5.710;2024-01-15T03:07:50;15.15;;;5.50;;
33022;SDS011;19390;51.460;5.710;2024-01-15T03:10:16;12.32;;;5.13;;
33022;SDS011;19390;51.460;5.710;2024-01-15T03:12:41;13.32;;;4.45;;
33022;SDS011;19390;51.460;5.710;2024-01-15T03:15:07;12.02;;;4.95;;
33022;SDS011;19390;51.460;5.710;2024-01-15T03:17:32;18.75;;;4.75;;
33022;SDS011;19390;51.460;5.710;2024-01-15T03:19:58;10.70;;;4.50;;
33022;SDS011;19390;51.460;5.710;2024-01-15T03:22:24;14.32;;;4.22;;
33022;SDS011;19390;51.460;5.710;2024-01-15T03:24:49;12.68;;;4.22;;
33022;SDS011;19390;51.460;5.710;2024-01-15T03:27:15;10.05;;;3.45;;
33022;SDS011;19390;51.460;5.710;2024-01-15T03:29:40;12.25;;;3.75;;
33022;SDS011;19390;51.460;5.710;2024-01-15T03:32:06;12.15;;;3.72;;
33022;SDS011;19390;51.460;5.710;2024-01-15T03:34:32;12.15;;;3.50;;
33022;SDS011;19390;51.460;5.710;2024-01-15T03:36:58;10.18;;;3.30;;
33022;SDS011;19390;51.460;5.710;2024-01-15T03:39:24;14.45;;;3.70;;
33022;SDS011;19390;51.460;5.710;2024-01-15T03:41:50;12.18;;;3.28;;
33022;SDS011;19390;51.460;5.710;2024-01-15T03:44:15;8.32;;;3.50;;
33022;SDS011;19390;51.460;5.710;2024-01-15T03:46:41;16.85;;;3.78;;
33022;SDS011;19390;51.460;5.710;2024-01-15T03:49:07;9.55;;;4.10;;
33022;SDS011;19390;51.460;5.710;2024-01-15T03:51:32;12.18;;;3.55;;
33022;SDS011;19390;51.460;5.710;2024-01-15T03:53:58;10.60;;;3.88;;
33022;SDS011;19390;51.460;5.710;2024-01-15T03:56:23;13.57;;;3.53;;
33022;SDS011;19390;51.460;5.710;2024-01-15T03:58:49;18.13;;;4.13;;
33022;SDS011;19390;51.460;5.710;2024-01-15T04:01:14;12.75;;;4.70;;
33022;SDS011;19390;51.460;5.710;2024-01-15T04:03:40;13.95;;;4.68;;
33022;SDS011;19390;51.460;5.710;2024-01-15T04:06:06;12.50;;;4.78;;
33022;SDS011;19390;51.460;5.710;2024-01-15T04:08:31;16.92;;;4.45;;
33022;SDS011;19390;51.460;5.710;2024-01-15T04:10:57;12.90;;;4.43;;
33022;SDS011;19390;51.460;5.710;2024-01-15T04:13:22;9.85;;;4.40;;
33022;SDS011;19390;51.460;5.710;2024-01-15T04:15:48;13.55;;;4.78;;
33022;SDS011;19390;51.460;5.710;2024-01-15T04:18:15;15.85;;;4.78;;
33022;SDS011;19390;51.460;5.710;2024-01-15T04:20:42;12.88;;;4.57;;
33022;SDS011;19390;51.460;5.710;2024-01-15T04:23:07;9.77;;;3.55;;
33022;SDS011;19390;51.460;5.710;2024-01-15T04:25:33;12.80;;;3.70;;
33022;SDS011;19390;51.460;5.710;2024-01-15T04:27:59;11.00;;;3.65;;
33022;SDS011;19390;51.460;5.710;2024-01-15T04:30:24;10.90;;;3.50;;
33022;SDS011;19390;51.460;5.710;2024-01-15T04:32:50;14.30;;;3.53;;
33022;SDS011;19390;51.460;5.710;2024-01-15T04:35:15;10.18;;;2.75;;
33022;SDS011;19390;51.460;5.710;2024-01-15T04:37:41;8.98;;;2.35;;
33022;SDS011;19390;51.460;5.710;2024-01-15T04:40:07;7.60;;;2.35;;
33022;SDS011;19390;51.460;5.710;2024-01-15T04:42:33;6.68;;;1.95;;
33022;SDS011;19390;51.460;5.710;2024-01-15T04:44:59;6.45;;;1.70;;
33022;SDS011;19390;51.460;5.710;2024-01-15T04:47:24;11.43;;;2.03;;
33022;SDS011;19390;51.460;5.710;2024-01-15T04:49:50;13.93;;;1.55;;
33022;SDS011;19390;51.460;5.710;2024-01-15T04:52:16;9.50;;;1.90;;
33022;SDS011;19390;51.460;5.710;2024-01-15T04:54:42;4.28;;;1.35;;
33022;SDS011;19390;51.460;5.710;2024-01-15T04:57:07;7.28;;;1.55;;
33022;SDS011;19390;51.460;5.710;2024-01-15T04:59:33;6.20;;;1.00;;
33022;SDS011;19390;51.460;5.710;2024-01-15T05:01:58;5.05;;;1.00;;
33022;SDS011;19390;51.460;5.710;2024-01-15T05:04:24;4.28;;;0.90;;
33022;SDS011;19390;51.460;5.710;2024-01-15T05:06:50;6.03;;;0.85;;
33022;SDS011;19390;51.460;5.710;2024-01-15T05:09:16;7.78;;;0.73;;
33022;SDS011;19390;51.460;5.710;2024-01-15T05:11:42;6.10;;;0.82;;
33022;SDS011;19390;51.460;5.710;2024-01-15T05:14:08;4.43;;;0.65;;
33022;SDS011;19390;51.460;5.710;2024-01-15T05:16:34;10.10;;;0.88;;
33022;SDS011;19390;51.460;5.710;2024-01-15T05:18:59;6.07;;;0.98;;
33022;SDS011;19390;51.460;5.710;2024-01-15T05:21:25;2.67;;;0.57;;
33022;SDS011;19390;51.460;5.710;2024-01-15T05:23:50;4.13;;;0.60;;
33022;SDS011;19390;51.460;5.710;2024-01-15T05:26:16;6.35;;;0.80;;
33022;SDS011;19390;51.460;5.710;2024-01-15T05:28:42;6.32;;;0.45;;
33022;SDS011;19390;51.460;5.710;2024-01-15T05:31:10;1.38;;;0.50;;
33022;SDS011;19390;51.460;5.710;2024-01-15T05:33:36;2.55;;;0.90;;
33022;SDS011;19390;51.460;5.710;2024-01-15T05:36:02;1.30;;;1.05;;
33022;SDS011;19390;51.460;5.710;2024-01-15T05:38:27;8.63;;;0.65;;
33022;SDS011;19390;51.460;5.710;2024-01-15T05:40:53;4.28;;;0.80;;
33022;SDS011;19390;51.460;5.710;2024-01-15T05:43:19;2.45;;;1.20;;
33022;SDS011;19390;51.460;5.710;2024-01-15T05:45:44;3.42;;;1.30;;
33022;SDS011;19390;51.460;5.710;2024-01-15T05:48:10;6.90;;;1.05;;
33022;SDS011;19390;51.460;5.710;2024-01-15T05:50:37;2.47;;;0.57;;
33022;SDS011;19390;51.460;5.710;2024-01-15T05:53:03;7.18;;;1.10;;
33022;SDS011;19390;51.460;5.710;2024-01-15T05:55:28;1.27;;;0.68;;
33022;SDS011;19390;51.460;5.710;2024-01-15T05:57:54;7.18;;;0.93;;
33022;SDS011;19390;51.460;5.710;2024-01-15T06:00:20;7.20;;;1.23;;
33022;SDS011;19390;51.460;5.710;2024-01-15T06:02:45;8.30;;;1.13;;
33022;SDS011;19390;51.460;5.710;2024-01-15T06:05:11;5.22;;;0.98;;
33022;SDS011;19390;51.460;5.710;2024-01-15T06:07:37;7.05;;;1.30;;
33022;SDS011;19390;51.460;5.710;2024-01-15T06:10:02;12.48;;;1.77;;
33022;SDS011;19390;51.460;5.710;2024-01-15T06:12:29;6.20;;;1.20;;
33022;SDS011;19390;51.460;5.710;2024-01-15T06:14:55;6.78;;;1.40;;
33022;SDS011;19390;51.460;5.710;2024-01-15T06:17:21;5.68;;;1.63;;
33022;SDS011;19390;51.460;5.710;2024-01-15T06:19:46;6.03;;;1.65;;
33022;SDS011;19390;51.460;5.710;2024-01-15T06:22:12;8.32;;;2.67;;
33022;SDS011;19390;51.460;5.710;2024-01-15T06:24:38;11.70;;;3.00;;
33022;SDS011;19390;51.460;5.710;2024-01-15T06:27:03;11.27;;;3.42;;
33022;SDS011;19390;51.460;5.710;2024-01-15T06:29:29;13.60;;;3.65;;
33022;SDS011;19390;51.460;5.710;2024-01-15T06:31:55;18.48;;;4.47;;
33022;SDS011;19390;51.460;5.710;2024-01-15T06:34:20;11.77;;;4.40;;
33022;SDS011;19390;51.460;5.710;2024-01-15T06:36:46;11.48;;;4.43;;
33022;SDS011;19390;51.460;5.710;2024-01-15T06:39:12;9.68;;;4.18;;
33022;SDS011;19390;51.460;5.710;2024-01-15T06:41:37;11.20;;;4.30;;
33022;SDS011;19390;51.460;5.710;2024-01-15T06:44:09;13.35;;;4.45;;
33022;SDS011;19390;51.460;5.710;2024-01-15T06:46:41;12.57;;;4.50;;
33022;SDS011;19390;51.460;5.710;2024-01-15T06:49:08;12.00;;;4.00;;
33022;SDS011;19390;51.460;5.710;2024-01-15T06:51:34;10.40;;;3.92;;
33022;SDS011;19390;51.460;5.710;2024-01-15T06:53:59;17.75;;;4.00;;
33022;SDS011;19390;51.460;5.710;2024-01-15T06:56:25;10.43;;;3.78;;
33022;SDS011;19390;51.460;5.710;2024-01-15T06:58:50;5.40;;;3.00;;
33022;SDS011;19390;51.460;5.710;2024-01-15T07:01:16;5.88;;;2.58;;
33022;SDS011;19390;51.460;5.710;2024-01-15T07:03:41;7.03;;;2.60;;
33022;SDS011;19390;51.460;5.710;2024-01-15T07:06:07;15.45;;;2.55;;
33022;SDS011;19390;51.460;5.710;2024-01-15T07:08:33;9.75;;;3.35;;
33022;SDS011;19390;51.460;5.710;2024-01-15T07:10:58;9.52;;;3.78;;
33022;SDS011;19390;51.460;5.710;2024-01-15T07:13:24;11.30;;;4.10;;
33022;SDS011;19390;51.460;5.710;2024-01-15T07:15:50;9.43;;;4.05;;
33022;SDS011;19390;51.460;5.710;2024-01-15T07:18:15;12.88;;;3.92;;
33022;SDS011;19390;51.460;5.710;2024-01-15T07:20:41;21.65;;;5.90;;
33022;SDS011;19390;51.460;5.710;2024-01-15T07:23:08;8.18;;;3.63;;
33022;SDS011;19390;51.460;5.710;2024-01-15T07:25:33;8.52;;;3.72;;
33022;SDS011;19390;51.460;5.710;2024-01-15T07:27:59;12.35;;;4.68;;
33022;SDS011;19390;51.460;5.710;2024-01-15T07:30:25;7.88;;;3.83;;
33022;SDS011;19390;51.460;5.710;2024-01-15T07:32:50;7.15;;;3.75;;
33022;SDS011;19390;51.460;5.710;2024-01-15T07:35:17;6.97;;;3.55;;
33022;SDS011;19390;51.460;5.710;2024-01-15T07:37:43;9.57;;;4.53;;
33022;SDS011;19390;51.460;5.710;2024-01-15T07:40:09;9.80;;;4.07;;
33022;SDS011;19390;51.460;5.710;2024-01-15T07:42:35;6.78;;;3.90;;
33022;SDS011;19390;51.460;5.710;2024-01-15T07:45:01;9.85;;;4.15;;
33022;SDS011;19390;51.460;5.710;2024-01-15T07:47:26;12.40;;;4.88;;
33022;SDS011;19390;51.460;5.710;2024-01-15T07:49:53;8.02;;;3.80;;
33022;SDS011;19390;51.460;5.710;2024-01-15T07:52:18;9.60;;;4.43;;
33022;SDS011;19390;51.460;5.710;2024-01-15T07:54:44;8.13;;;4.07;;
33022;SDS011;19390;51.460;5.710;2024-01-15T07:57:10;13.05;;;3.42;;
33022;SDS011;19390;51.460;5.710;2024-01-15T07:59:36;10.05;;;4.25;;
33022;SDS011;19390;51.460;5.710;2024-01-15T08:02:01;7.20;;;3.33;;
33022;SDS011;19390;51.460;5.710;2024-01-15T08:04:27;6.22;;;2.63;;
33022;SDS011;19390;51.460;5.710;2024-01-15T08:06:53;9.50;;;3.75;;
33022;SDS011;19390;51.460;5.710;2024-01-15T08:09:19;7.90;;;2.85;;
33022;SDS011;19390;51.460;5.710;2024-01-15T08:11:44;8.88;;;3.13;;
33022;SDS011;19390;51.460;5.710;2024-01-15T08:14:10;9.32;;;3.95;;
33022;SDS011;19390;51.460;5.710;2024-01-15T08:16:36;12.70;;;4.60;;
33022;SDS011;19390;51.460;5.710;2024-01-15T08:19:02;12.27;;;4.28;;
33022;SDS011;19390;51.460;5.710;2024-01-15T08:21:28;9.38;;;3.80;;
33022;SDS011;19390;51.460;5.710;2024-01-15T08:23:56;10.40;;;4.75;;
33022;SDS011;19390;51.460;5.710;2024-01-15T08:26:22;11.00;;;5.00;;
33022;SDS011;19390;51.460;5.710;2024-01-15T08:28:49;9.77;;;4.85;;
33022;SDS011;19390;51.460;5.710;2024-01-15T08:31:14;14.02;;;5.25;;
33022;SDS011;19390;51.460;5.710;2024-01-15T08:33:40;10.55;;;5.57;;
33022;SDS011;19390;51.460;5.710;2024-01-15T08:36:06;12.02;;;5.95;;
33022;SDS011;19390;51.460;5.710;2024-01-15T08:38:31;12.77;;;5.38;;
33022;SDS011;19390;51.460;5.710;2024-01-15T08:40:57;8.82;;;4.60;;
33022;SDS011;19390;51.460;5.710;2024-01-15T08:43:25;52.92;;;8.68;;
33022;SDS011;19390;51.460;5.710;2024-01-15T08:45:51;12.13;;;5.85;;
33022;SDS011;19390;51.460;5.710;2024-01-15T08:48:17;14.63;;;5.22;;
33022;SDS011;19390;51.460;5.710;2024-01-15T08:50:43;10.23;;;5.43;;
33022;SDS011;19390;51.460;5.710;2024-01-15T08:53:11;9.00;;;4.70;;
33022;SDS011;19390;51.460;5.710;2024-01-15T08:55:37;9.15;;;4.43;;
33022;SDS011;19390;51.460;5.710;2024-01-15T08:58:03;9.80;;;5.05;;
33022;SDS011;19390;51.460;5.710;2024-01-15T09:00:29;11.55;;;5.80;;
33022;SDS011;19390;51.460;5.710;2024-01-15T09:02:55;12.13;;;5.47;;
33022;SDS011;19390;51.460;5.710;2024-01-15T09:05:21;9.85;;;4.28;;
33022;SDS011;19390;51.460;5.710;2024-01-15T09:07:47;9.45;;;4.82;;
33022;SDS011;19390;51.460;5.710;2024-01-15T09:10:13;10.93;;;4.93;;
33022;SDS011;19390;51.460;5.710;2024-01-15T09:12:39;12.57;;;4.45;;
33022;SDS011;19390;51.460;5.710;2024-01-15T09:15:05;9.07;;;4.28;;
33022;SDS011;19390;51.460;5.710;2024-01-15T09:17:34;6.10;;;3.20;;
33022;SDS011;19390;51.460;5.710;2024-01-15T09:19:59;6.43;;;3.22;;
33022;SDS011;19390;51.460;5.710;2024-01-15T09:22:25;6.90;;;3.63;;
33022;SDS011;19390;51.460;5.710;2024-01-15T09:24:51;4.88;;;2.55;;
33022;SDS011;19390;51.460;5.710;2024-01-15T09:27:16;4.70;;;2.13;;
33022;SDS011;19390;51.460;5.710;2024-01-15T09:29:42;5.22;;;2.35;;
33022;SDS011;19390;51.460;5.710;2024-01-15T09:32:10;3.25;;;2.03;;
33022;SDS011;19390;51.460;5.710;2024-01-15T09:34:36;5.03;;;2.08;;
33022;SDS011;19390;51.460;5.710;2024-01-15T09:37:02;8.95;;;2.50;;
33022;SDS011;19390;51.460;5.710;2024-01-15T09:39:29;8.98;;;3.00;;
33022;SDS011;19390;51.460;5.710;2024-01-15T09:41:55;3.40;;;1.42;;
33022;SDS011;19390;51.460;5.710;2024-01-15T09:44:21;6.72;;;1.48;;
33022;SDS011;19390;51.460;5.710;2024-01-15T09:46:47;3.05;;;1.27;;
33022;SDS011;19390;51.460;5.710;2024-01-15T09:49:15;3.42;;;1.10;;
33022;SDS011;19390;51.460;5.710;2024-01-15T09:51:41;3.92;;;1.10;;
33022;SDS011;19390;51.460;5.710;2024-01-15T09:54:07;5.38;;;1.40;;
33022;SDS011;19390;51.460;5.710;2024-01-15T09:56:33;4.22;;;1.17;;
33022;SDS011;19390;51.460;5.710;2024-01-15T09:59:00;5.32;;;0.77;;
33022;SDS011;19390;51.460;5.710;2024-01-15T10:01:26;6.65;;;0.68;;
33022;SDS011;19390;51.460;5.710;2024-01-15T10:03:52;1.08;;;0.43;;
33022;SDS011;19390;51.460;5.710;2024-01-15T10:06:19;7.45;;;0.95;;
33022;SDS011;19390;51.460;5.710;2024-01-15T10:08:47;4.63;;;1.00;;
33022;SDS011;19390;51.460;5.710;2024-01-15T10:11:14;4.05;;;1.05;;
33022;SDS011;19390;51.460;5.710;2024-01-15T10:13:41;2.13;;;0.70;;
33022;SDS011;19390;51.460;5.710;2024-01-15T10:16:18;1.92;;;0.80;;
33022;SDS011;19390;51.460;5.710;2024-01-15T10:18:47;1.65;;;0.70;;
33022;SDS011;19390;51.460;5.710;2024-01-15T10:21:13;2.72;;;0.80;;
33022;SDS011;19390;51.460;5.710;2024-01-15T10:23:39;9.63;;;0.70;;
33022;SDS011;19390;51.460;5.710;2024-01-15T10:26:05;2.47;;;0.75;;
33022;SDS011;19390;51.460;5.710;2024-01-15T10:28:31;2.53;;;0.88;;
33022;SDS011;19390;51.460;5.710;2024-01-15T10:30:57;5.88;;;0.82;;
33022;SDS011;19390;51.460;5.710;2024-01-15T10:33:24;2.60;;;1.00;;
33022;SDS011;19390;51.460;5.710;2024-01-15T10:35:56;8.45;;;1.08;;
33022;SDS011;19390;51.460;5.710;2024-01-15T10:38:22;4.88;;;0.93;;
33022;SDS011;19390;51.460;5.710;2024-01-15T10:40:52;5.93;;;0.82;;
33022;SDS011;19390;51.460;5.710;2024-01-15T10:43:19;5.75;;;0.98;;
33022;SDS011;19390;51.460;5.710;2024-01-15T10:45:46;3.67;;;1.42;;
33022;SDS011;19390;51.460;5.710;2024-01-15T10:48:12;4.53;;;0.70;;
33022;SDS011;19390;51.460;5.710;2024-01-15T10:50:38;1.75;;;0.95;;
33022;SDS011;19390;51.460;5.710;2024-01-15T10:53:04;5.55;;;1.58;;
33022;SDS011;19390;51.460;5.710;2024-01-15T10:55:33;4.85;;;1.13;;
33022;SDS011;19390;51.460;5.710;2024-01-15T10:58:00;7.60;;;1.25;;
33022;SDS011;19390;51.460;5.710;2024-01-15T11:00:28;5.18;;;1.10;;
33022;SDS011;19390;51.460;5.710;2024-01-15T11:02:55;5.00;;;1.70;;
33022;SDS011;19390;51.460;5.710;2024-01-15T11:05:21;4.13;;;1.20;;
33022;SDS011;19390;51.460;5.710;2024-01-15T11:07:50;3.85;;;1.40;;
33022;SDS011;19390;51.460;5.710;2024-01-15T11:13:39;2.78;;;1.50;;
33022;SDS011;19390;51.460;5.710;2024-01-15T11:16:06;4.07;;;1.83;;
33022;SDS011;19390;51.460;5.710;2024-01-15T11:18:37;6.10;;;1.90;;
33022;SDS011;19390;51.460;5.710;2024-01-15T11:21:26;6.38;;;1.30;;
33022;SDS011;19390;51.460;5.710;2024-01-15T11:23:59;5.60;;;1.90;;
33022;SDS011;19390;51.460;5.710;2024-01-15T11:26:43;4.07;;;1.85;;
33022;SDS011;19390;51.460;5.710;2024-01-15T11:29:10;6.85;;;1.95;;
33022;SDS011;19390;51.460;5.710;2024-01-15T11:34:20;5.68;;;2.47;;
33022;SDS011;19390;51.460;5.710;2024-01-15T11:42:02;8.20;;;2.60;;
33022;SDS011;19390;51.460;5.710;2024-01-15T11:44:28;8.43;;;2.03;;
33022;SDS011;19390;51.460;5.710;2024-01-15T11:46:58;2.53;;;1.20;;
33022;SDS011;19390;51.460;5.710;2024-01-15T11:52:16;3.85;;;1.33;;
33022;SDS011;19390;51.460;5.710;2024-01-15T11:54:51;15.95;;;1.90;;
33022;SDS011;19390;51.460;5.710;2024-01-15T11:57:51;3.28;;;1.17;;
33022;SDS011;19390;51.460;5.710;2024-01-15T12:00:19;2.35;;;1.30;;
33022;SDS011;19390;51.460;5.710;2024-01-15T12:02:46;6.07;;;1.60;;
33022;SDS011;19390;51.460;5.710;2024-01-15T12:05:13;5.63;;;1.45;;
33022;SDS011;19390;51.460;5.710;2024-01-15T12:07:40;3.95;;;1.00;;
33022;SDS011;19390;51.460;5.710;2024-01-15T12:10:10;1.55;;;0.98;;
33022;SDS011;19390;51.460;5.710;2024-01-15T12:15:14;1.15;;;0.82;;
33022;SDS011;19390;51.460;5.710;2024-01-15T12:17:40;1.63;;;0.77;;
33022;SDS011;19390;51.460;5.710;2024-01-15T12:20:06;0.93;;;0.63;;
33022;SDS011;19390;51.460;5.710;2024-01-15T12:22:32;1.08;;;0.70;;
33022;SDS011;19390;51.460;5.710;2024-01-15T12:24:58;0.93;;;0.82;;
33022;SDS011;19390;51.460;5.710;2024-01-15T12:27:24;3.28;;;0.70;;
33022;SDS011;19390;51.460;5.710;2024-01-15T12:29:50;4.15;;;0.93;;
33022;SDS011;19390;51.460;5.710;2024-01-15T12:32:18;2.97;;;0.98;;
33022;SDS011;19390;51.460;5.710;2024-01-15T12:34:44;1.63;;;0.98;;
33022;SDS011;19390;51.460;5.710;2024-01-15T12:37:09;1.38;;;1.27;;
33022;SDS011;19390;51.460;5.710;2024-01-15T12:39:37;4.28;;;1.25;;
33022;SDS011;19390;51.460;5.710;2024-01-15T12:42:03;3.08;;;1.40;;
33022;SDS011;19390;51.460;5.710;2024-01-15T12:44:29;3.40;;;1.65;;
33022;SDS011;19390;51.460;5.710;2024-01-15T12:46:55;4.75;;;1.80;;
33022;SDS011;19390;51.460;5.710;2024-01-15T12:49:23;4.38;;;1.92;;
33022;SDS011;19390;51.460;5.710;2024-01-15T12:51:52;6.28;;;1.88;;
33022;SDS011;19390;51.460;5.710;2024-01-15T12:54:18;3.63;;;2.17;;
33022;SDS011;19390;51.460;5.710;2024-01-15T12:56:44;3.58;;;2.60;;
33022;SDS011;19390;51.460;5.710;2024-01-15T12:59:10;4.38;;;2.40;;
33022;SDS011;19390;51.460;5.710;2024-01-15T13:01:35;3.20;;;2.15;;
33022;SDS011;19390;51.460;5.710;2024-01-15T13:04:01;4.95;;;2.53;;
33022;SDS011;19390;51.460;5.710;2024-01-15T13:06:27;5.20;;;2.35;;
33022;SDS011;19390;51.460;5.710;2024-01-15T13:08:52;3.78;;;2.05;;
33022;SDS011;19390;51.460;5.710;2024-01-15T13:11:18;6.28;;;2.95;;
33022;SDS011;19390;51.460;5.710;2024-01-15T13:13:43;5.53;;;2.60;;
33022;SDS011;19390;51.460;5.710;2024-01-15T13:16:09;6.43;;;3.05;;
33022;SDS011;19390;51.460;5.710;2024-01-15T13:18:35;2.92;;;2.00;;
33022;SDS011;19390;51.460;5.710;2024-01-15T13:21:01;7.82;;;3.13;;
33022;SDS011;19390;51.460;5.710;2024-01-15T13:23:27;5.30;;;3.03;;
33022;SDS011;19390;51.460;5.710;2024-01-15T13:25:53;4.18;;;2.65;;
33022;SDS011;19390;51.460;5.710;2024-01-15T13:28:19;6.63;;;2.95;;
33022;SDS011;19390;51.460;5.710;2024-01-15T13:30:46;45.35;;;5.97;;
33022;SDS011;19390;51.460;5.710;2024-01-15T13:33:12;3.55;;;2.60;;
33022;SDS011;19390;51.460;5.710;2024-01-15T13:35:38;5.13;;;2.50;;
33022;SDS011;19390;51.460;5.710;2024-01-15T13:38:04;3.92;;;2.33;;
33022;SDS011;19390;51.460;5.710;2024-01-15T13:40:29;3.25;;;1.75;;
33022;SDS011;19390;51.460;5.710;2024-01-15T13:42:55;3.00;;;2.05;;
33022;SDS011;19390;51.460;5.710;2024-01-15T13:45:21;3.65;;;2.28;;
33022;SDS011;19390;51.460;5.710;2024-01-15T13:47:48;4.10;;;2.20;;
33022;SDS011;19390;51.460;5.710;2024-01-15T13:50:14;3.35;;;1.98;;
33022;SDS011;19390;51.460;5.710;2024-01-15T13:52:40;3.72;;;2.33;;
33022;SDS011;19390;51.460;5.710;2024-01-15T13:55:05;5.00;;;2.28;;
33022;SDS011;19390;51.460;5.710;2024-01-15T13:57:33;4.00;;;1.85;;
33022;SDS011;19390;51.460;5.710;2024-01-15T13:59:59;4.13;;;1.98;;
33022;SDS011;19390;51.460;5.710;2024-01-15T14:02:25;3.08;;;2.08;;
33022;SDS011;19390;51.460;5.710;2024-01-15T14:04:50;2.63;;;1.73;;
33022;SDS011;19390;51.460;5.710;2024-01-15T14:07:16;2.28;;;1.65;;
33022;SDS011;19390;51.460;5.710;2024-01-15T14:09:42;2.72;;;1.40;;
33022;SDS011;19390;51.460;5.710;2024-01-15T14:12:07;2.55;;;1.88;;
33022;SDS011;19390;51.460;5.710;2024-01-15T14:14:33;2.55;;;1.38;;
33022;SDS011;19390;51.460;5.710;2024-01-15T14:16:58;4.50;;;2.05;;
33022;SDS011;19390;51.460;5.710;2024-01-15T14:19:24;2.45;;;1.50;;
33022;SDS011;19390;51.460;5.710;2024-01-15T14:21:50;3.25;;;1.60;;
33022;SDS011;19390;51.460;5.710;2024-01-15T14:24:15;4.07;;;2.13;;
33022;SDS011;19390;51.460;5.710;2024-01-15T14:26:42;4.10;;;1.63;;
33022;SDS011;19390;51.460;5.710;2024-01-15T14:29:07;3.70;;;1.60;;
33022;SDS011;19390;51.460;5.710;2024-01-15T14:31:33;2.28;;;1.48;;
33022;SDS011;19390;51.460;5.710;2024-01-15T14:33:59;8.50;;;2.28;;
33022;SDS011;19390;51.460;5.710;2024-01-15T14:36:25;3.53;;;1.75;;
33022;SDS011;19390;51.460;5.710;2024-01-15T14:38:51;2.10;;;1.73;;
33022;SDS011;19390;51.460;5.710;2024-01-15T14:41:17;2.88;;;1.92;;
33022;SDS011;19390;51.460;5.710;2024-01-15T14:43:42;3.25;;;1.98;;
33022;SDS011;19390;51.460;5.710;2024-01-15T14:46:08;4.97;;;2.72;;
33022;SDS011;19390;51.460;5.710;2024-01-15T14:48:33;2.08;;;1.60;;
33022;SDS011;19390;51.460;5.710;2024-01-15T14:50:59;3.92;;;1.67;;